Time;durP1;ratioP1;P1;durP2;ratioP2;P2;SDS_P1;SDS_P2;PMS_P1;PMS_P2;Temp;Humidity;BMP_temperature;BMP_pressure;BME280_temperature;BME280_humidity;BME280_pressure;Samples;Min_cycle;Max_cycle;Signal;HPM_P1;HPM_P2
2023/09/30 00:00:28;;;;;;;15.80;7.90;;;;;;;18.22;46.65;99906.42;79676;1298;3012338;-65
2023/09/30 00:02:55;;;;;;;18.60;7.90;;;;;;;18.19;46.59;99899.92;79689;1299;3011490;-72
2023/09/30 00:05:22;;;;;;;17.60;8.40;;;;;;;18.18;46.51;99898.07;78281;1296;3025967;-68
2023/09/30 00:07:49;;;;;;;23.40;8.60;;;;;;;18.16;46.78;99898.55;79260;1301;3019082;-71
2023/09/30 00:10:16;;;;;;;21.80;7.80;;;;;;;18.14;46.58;99899.27;79377;1300;3013112;-66
2023/09/30 00:12:45;;;;;;;15.50;7.90;;;;;;;18.12;46.77;99897.31;78091;1299;3029110;-69
2023/09/30 00:15:12;;;;;;;15.90;7.70;;;;;;;18.08;46.57;99894.51;79393;1298;3013315;-61
2023/09/30 00:17:39;;;;;;;19.30;7.60;;;;;;;18.03;46.49;99898.43;79403;1298;3011588;-70
2023/09/30 00:20:08;;;;;;;17.00;8.10;;;;;;;18.02;46.61;99895.85;78307;1300;3051611;-64
2023/09/30 00:22:34;;;;;;;21.50;7.40;;;;;;;18.02;46.52;99895.92;80067;1298;3011646;-71
2023/09/30 00:25:05;;;;;;;14.70;7.70;;;;;;;17.99;46.88;99896.67;79305;1296;3011646;-66
2023/09/30 00:27:33;;;;;;;15.50;8.30;;;;;;;17.97;46.76;99897.39;78053;1296;3050152;-68
2023/09/30 00:30:00;;;;;;;18.60;8.10;;;;;;;17.95;46.85;99895.27;79396;1303;3020607;-72
2023/09/30 00:32:26;;;;;;;17.10;7.40;;;;;;;17.92;46.40;99896.85;79456;1295;3011924;-64
2023/09/30 00:34:54;;;;;;;18.80;7.70;;;;;;;17.91;46.76;99897.83;78283;1301;3028815;-65
2023/09/30 00:37:21;;;;;;;18.40;7.60;;;;;;;17.90;46.73;99896.65;79441;1298;3013799;-69
2023/09/30 00:39:47;;;;;;;15.60;7.70;;;;;;;17.88;46.44;99896.12;79357;1298;3013186;-72
2023/09/30 00:42:15;;;;;;;17.60;7.40;;;;;;;17.87;46.36;99896.76;78191;1298;3026016;-69
2023/09/30 00:44:41;;;;;;;16.00;7.50;;;;;;;17.86;46.67;99893.84;79241;1301;3018571;-69
2023/09/30 00:47:09;;;;;;;22.20;8.00;;;;;;;17.84;46.77;99892.45;79322;1295;3011996;-69
2023/09/30 00:49:36;;;;;;;22.90;8.20;;;;;;;17.79;47.18;99891.90;78253;1295;3051989;-66
2023/09/30 00:52:03;;;;;;;16.90;8.00;;;;;;;17.79;47.01;99888.41;79241;1301;3013100;-67
2023/09/30 00:54:30;;;;;;;15.30;7.40;;;;;;;17.74;46.59;99891.93;79315;1298;3013219;-71
2023/09/30 00:57:00;;;;;;;15.80;7.10;;;;;;;17.73;46.62;99890.09;78319;1301;3025802;-69
2023/09/30 00:59:27;;;;;;;13.90;7.70;;;;;;;17.72;46.53;99889.11;79363;1300;3012972;-73
2023/09/30 01:01:55;;;;;;;16.10;7.60;;;;;;;17.69;46.97;99889.73;79675;1295;3011462;-64
2023/09/30 01:04:23;;;;;;;14.20;7.50;;;;;;;17.68;46.38;99888.58;78220;1301;3051239;-65
2023/09/30 01:06:50;;;;;;;15.40;7.70;;;;;;;17.66;46.53;99888.55;79578;1298;3013301;-70
2023/09/30 01:09:16;;;;;;;19.10;7.80;;;;;;;17.64;46.57;99882.72;79307;1299;3011603;-64
2023/09/30 01:11:44;;;;;;;20.30;7.30;;;;;;;17.61;46.44;99888.12;78023;1301;3028371;-69
2023/09/30 01:14:30;;;;;;;13.50;7.40;;;;;;;17.59;45.93;99889.88;79466;1302;3020691;-66
2023/09/30 01:16:58;;;;;;;21.30;8.70;;;;;;;17.56;45.94;99885.55;78175;1298;3069579;-67
2023/09/30 01:19:25;;;;;;;14.50;7.00;;;;;;;17.53;45.79;99881.48;79376;1296;3013040;-66
2023/09/30 01:21:54;;;;;;;18.80;8.00;;;;;;;17.52;46.08;99883.69;79216;1296;3013101;-70
2023/09/30 01:24:22;;;;;;;14.50;7.70;;;;;;;17.52;46.25;99883.04;78273;1309;3053749;-63
2023/09/30 01:26:49;;;;;;;17.70;7.10;;;;;;;17.51;46.03;99882.92;79366;1300;3013677;-69
2023/09/30 01:29:16;;;;;;;23.20;7.90;;;;;;;17.48;46.39;99882.63;79344;1301;3011891;-70
2023/09/30 01:31:49;;;;;;;18.80;7.80;;;;;;;17.42;47.32;99880.63;78234;1298;3070471;-66
2023/09/30 01:34:17;;;;;;;16.90;8.10;;;;;;;17.35;47.59;99880.39;79471;1299;3013750;-71
2023/09/30 01:36:44;;;;;;;16.40;8.10;;;;;;;17.33;47.58;99883.54;78238;1298;3028719;-72
2023/09/30 01:39:11;;;;;;;18.20;7.90;;;;;;;17.30;47.47;99887.33;79403;1295;3012962;-69
2023/09/30 01:41:38;;;;;;;20.80;8.00;;;;;;;17.27;47.42;99882.17;79361;1296;3011648;-62
2023/09/30 01:44:09;;;;;;;21.30;8.10;;;;;;;17.24;47.93;99882.96;78193;1308;3051891;-68
2023/09/30 01:46:37;;;;;;;18.80;8.20;;;;;;;17.20;48.33;99885.80;79470;1298;3013135;-66
2023/09/30 01:49:03;;;;;;;14.20;8.50;;;;;;;17.08;49.57;99885.90;79447;1295;3012946;-64
2023/09/30 01:51:32;;;;;;;25.80;8.80;;;;;;;17.01;49.92;99884.67;78313;1301;3055830;-70
2023/09/30 01:53:58;;;;;;;24.10;8.20;;;;;;;16.93;50.62;99880.70;80006;1295;3013355;-62
2023/09/30 01:56:25;;;;;;;20.50;8.00;;;;;;;16.86;50.60;99880.55;79738;1298;3011866;-62
2023/09/30 01:58:53;;;;;;;17.70;8.80;;;;;;;16.79;50.80;99879.52;78229;1299;3054177;-68
2023/09/30 02:01:20;;;;;;;28.30;9.10;;;;;;;16.74;50.93;99882.92;79662;1295;3013148;-70
2023/09/30 02:03:47;;;;;;;19.70;8.30;;;;;;;16.67;51.05;99878.69;79517;1296;3011298;-70
2023/09/30 02:06:15;;;;;;;17.50;8.40;;;;;;;16.65;51.41;99880.14;78140;1301;3027529;-68
2023/09/30 02:08:44;;;;;;;22.80;8.80;;;;;;;16.61;51.74;99879.32;79259;1301;3013720;-71
2023/09/30 02:11:16;;;;;;;18.50;8.60;;;;;;;16.55;51.89;99877.02;78772;1298;3011990;-68
2023/09/30 02:13:44;;;;;;;17.80;9.00;;;;;;;16.48;52.05;99881.26;79472;1298;3011684;-69
2023/09/30 02:16:13;;;;;;;16.70;8.10;;;;;;;16.43;52.18;99879.52;78243;1301;3025206;-69
2023/09/30 02:18:44;;;;;;;19.00;9.30;;;;;;;16.43;52.27;99876.70;79479;1295;3013714;-63
2023/09/30 02:21:13;;;;;;;19.40;8.70;;;;;;;16.39;52.30;99874.85;78273;1301;3052242;-65
2023/09/30 02:23:39;;;;;;;23.90;9.10;;;;;;;16.44;51.61;99873.27;79418;1295;3019102;-67
2023/09/30 02:26:07;;;;;;;22.40;8.90;;;;;;;16.47;51.46;99873.56;79473;1300;3012980;-67
2023/09/30 02:28:36;;;;;;;22.60;8.70;;;;;;;16.47;51.74;99872.36;78203;1299;3029204;-65
2023/09/30 02:31:03;;;;;;;18.30;8.20;;;;;;;16.43;51.91;99878.44;79390;1298;3013195;-67
2023/09/30 02:33:29;;;;;;;18.40;8.60;;;;;;;16.39;52.11;99875.77;79289;1295;3013541;-69
2023/09/30 02:35:57;;;;;;;29.60;9.50;;;;;;;16.41;51.28;99876.46;78263;1295;3051919;-69
2023/09/30 02:38:25;;;;;;;27.10;9.30;;;;;;;16.44;51.26;99874.65;79505;1298;3012935;-71
2023/09/30 02:40:54;;;;;;;25.00;8.40;;;;;;;16.42;51.68;99872.31;79672;1296;3011949;-71
2023/09/30 02:43:23;;;;;;;20.10;8.70;;;;;;;16.40;52.08;99872.31;78431;1297;3051585;-68
2023/09/30 02:45:50;;;;;;;18.40;8.70;;;;;;;16.35;52.69;99872.91;79660;1298;3013756;-66
2023/09/30 02:48:16;;;;;;;21.40;9.90;;;;;;;16.30;53.41;99871.85;79541;1296;3011600;-64
2023/09/30 02:50:44;;;;;;;17.80;8.90;;;;;;;16.24;53.92;99872.14;78180;1297;3025796;-69
2023/09/30 02:53:13;;;;;;;20.90;9.40;;;;;;;16.22;53.99;99872.34;79496;1295;3013036;-69
2023/09/30 02:55:40;;;;;;;19.60;8.90;;;;;;;16.16;54.08;99870.14;79523;1294;3013451;-71
2023/09/30 02:58:08;;;;;;;22.50;9.10;;;;;;;16.15;53.90;99871.63;78403;1298;3050439;-70
2023/09/30 03:00:36;;;;;;;16.50;9.10;;;;;;;16.13;53.72;99869.11;79482;1296;3015509;-67
2023/09/30 03:03:03;;;;;;;25.10;9.80;;;;;;;16.11;53.74;99867.90;79588;1296;3013089;-65
2023/09/30 03:05:35;;;;;;;19.30;9.50;;;;;;;16.07;53.99;99865.84;78422;1298;3051960;-66
2023/09/30 03:08:02;;;;;;;22.10;9.10;;;;;;;16.06;53.88;99868.39;79528;1295;3013554;-66
2023/09/30 03:10:31;;;;;;;19.00;10.60;;;;;;;16.04;53.77;99868.05;78878;1295;3013739;-71
2023/09/30 03:13:03;;;;;;;20.30;8.80;;;;;;;16.02;54.09;99864.34;79403;1298;3018388;-62
2023/09/30 03:15:31;;;;;;;16.80;8.90;;;;;;;16.00;54.11;99866.79;78322;1308;3052412;-63
2023/09/30 03:18:01;;;;;;;19.20;8.50;;;;;;;15.96;53.95;99860.36;79538;1298;3011470;-70
2023/09/30 03:20:30;;;;;;;24.30;8.20;;;;;;;15.96;53.57;99864.11;78986;1294;3011891;-65
2023/09/30 03:22:57;;;;;;;21.80;9.60;;;;;;;15.91;53.60;99861.98;79517;1294;3013085;-72
2023/09/30 03:25:24;;;;;;;18.60;8.50;;;;;;;15.87;53.37;99862.61;79371;1294;3011421;-67
2023/09/30 03:27:52;;;;;;;18.50;8.20;;;;;;;15.88;53.20;99860.64;78284;1295;3052107;-70
2023/09/30 03:30:20;;;;;;;17.20;8.60;;;;;;;15.88;52.87;99858.45;79911;1298;3013093;-72
2023/09/30 03:32:47;;;;;;;20.70;8.40;;;;;;;15.92;52.43;99860.10;79587;1294;3014466;-64
2023/09/30 03:35:16;;;;;;;17.90;9.10;;;;;;;15.92;52.58;99856.42;78221;1297;3070729;-68
2023/09/30 03:37:44;;;;;;;18.80;8.90;;;;;;;15.92;52.21;99857.98;79588;1295;3012880;-64
2023/09/30 03:40:14;;;;;;;22.40;9.20;;;;;;;15.93;52.08;99855.24;79029;1298;3013915;-63
2023/09/30 03:42:44;;;;;;;20.60;8.60;;;;;;;15.93;51.93;99857.72;79671;1295;3015961;-67
2023/09/30 03:45:13;;;;;;;22.90;9.10;;;;;;;15.95;51.89;99858.48;78277;1297;3051326;-70
2023/09/30 03:47:40;;;;;;;16.60;8.40;;;;;;;15.94;51.86;99858.39;79534;1295;3011573;-65
2023/09/30 03:50:13;;;;;;;18.30;8.80;;;;;;;15.95;51.78;99860.11;79576;1295;3011584;-62
2023/09/30 03:52:44;;;;;;;18.90;8.70;;;;;;;15.93;51.88;99859.31;78240;1295;3051759;-70
2023/09/30 03:55:12;;;;;;;16.60;8.10;;;;;;;15.96;51.55;99862.30;79626;1298;3012656;-69
2023/09/30 03:57:40;;;;;;;18.10;7.80;;;;;;;15.98;51.34;99862.02;78954;1298;3011853;-68
2023/09/30 04:00:11;;;;;;;23.50;8.70;;;;;;;15.99;51.20;99864.34;79595;1295;3013109;-68
2023/09/30 04:02:42;;;;;;;25.80;8.90;;;;;;;16.00;50.85;99866.05;78387;1298;3053005;-67
2023/09/30 04:05:12;;;;;;;17.60;8.20;;;;;;;16.02;50.79;99867.71;79765;1298;3013188;-69
2023/09/30 04:07:42;;;;;;;18.90;8.20;;;;;;;16.05;50.59;99868.38;78482;1298;3050979;-66
2023/09/30 04:10:09;;;;;;;22.50;9.40;;;;;;;16.07;50.55;99867.13;79690;1296;3013767;-62
2023/09/30 04:12:36;;;;;;;25.10;8.90;;;;;;;16.10;50.42;99867.22;79519;1296;3011737;-70
2023/09/30 04:15:05;;;;;;;16.00;8.40;;;;;;;16.13;50.07;99867.89;78289;1298;3051341;-67
2023/09/30 04:17:32;;;;;;;14.90;8.20;;;;;;;16.16;49.96;99869.80;79697;1295;3015196;-68
2023/09/30 04:19:59;;;;;;;21.70;8.80;;;;;;;16.19;49.82;99870.78;79645;1295;3011643;-66
2023/09/30 04:22:29;;;;;;;20.20;8.00;;;;;;;16.21;49.91;99869.77;78279;1295;3050919;-72
2023/09/30 04:24:56;;;;;;;19.40;9.00;;;;;;;16.23;49.89;99870.64;79553;1295;3013158;-69
2023/09/30 04:27:22;;;;;;;22.60;8.10;;;;;;;16.24;50.06;99873.79;79538;1302;3011716;-66
2023/09/30 04:29:50;;;;;;;29.00;9.60;;;;;;;16.25;50.33;99874.86;78322;1298;3047963;-73
2023/09/30 04:32:17;;;;;;;21.90;9.10;;;;;;;16.27;50.65;99875.77;79719;1296;3012667;-69
2023/09/30 04:34:45;;;;;;;18.40;8.60;;;;;;;16.28;51.21;99880.73;79607;1296;3013460;-71
2023/09/30 04:37:13;;;;;;;25.60;8.50;;;;;;;16.26;51.48;99878.56;78207;1298;3051662;-69
2023/09/30 04:39:40;;;;;;;28.40;8.90;;;;;;;16.24;51.94;99877.67;79517;1297;3014179;-72
2023/09/30 04:42:10;;;;;;;17.20;8.20;;;;;;;16.23;52.00;99879.27;79596;1295;3011532;-68
2023/09/30 04:44:38;;;;;;;27.90;9.70;;;;;;;16.24;52.06;99880.30;78428;1298;3050829;-66
2023/09/30 04:47:05;;;;;;;21.40;8.70;;;;;;;16.27;52.06;99880.95;79574;1298;3013529;-66
2023/09/30 04:49:31;;;;;;;19.50;8.20;;;;;;;16.29;52.22;99881.48;79639;1294;3011813;-70
2023/09/30 04:52:00;;;;;;;17.50;7.90;;;;;;;16.31;52.37;99885.09;78526;1294;3028395;-72
2023/09/30 04:54:26;;;;;;;25.60;9.10;;;;;;;16.35;52.29;99889.19;79656;1295;3014144;-67
2023/09/30 04:56:53;;;;;;;22.60;8.70;;;;;;;16.40;52.09;99887.71;79636;1295;3011880;-71
2023/09/30 04:59:22;;;;;;;17.00;8.60;;;;;;;16.45;52.02;99885.72;78429;1298;3049936;-67
2023/09/30 05:01:50;;;;;;;21.40;8.80;;;;;;;16.49;52.18;99886.52;79657;1295;3013141;-67
2023/09/30 05:04:17;;;;;;;23.70;8.90;;;;;;;16.54;51.87;99886.22;79803;1298;3013460;-67
2023/09/30 05:06:44;;;;;;;20.50;9.10;;;;;;;16.52;52.08;99885.72;78770;1295;3051557;-66
2023/09/30 05:09:12;;;;;;;27.40;8.00;;;;;;;16.56;51.79;99888.95;79645;1294;3012709;-64
2023/09/30 05:11:39;;;;;;;25.30;8.80;;;;;;;16.61;51.71;99888.73;79509;1298;3011959;-66
2023/09/30 05:14:07;;;;;;;13.60;7.80;;;;;;;16.69;51.34;99886.67;78476;1298;3026325;-68
2023/09/30 05:16:33;;;;;;;24.90;8.90;;;;;;;16.75;50.78;99887.41;79658;1298;3018616;-69
2023/09/30 05:19:00;;;;;;;15.40;7.90;;;;;;;16.84;50.61;99887.23;79932;1298;3011703;-73
2023/09/30 05:21:28;;;;;;;20.10;8.20;;;;;;;16.90;50.27;99888.19;78434;1296;3028434;-67
2023/09/30 05:23:54;;;;;;;26.70;7.80;;;;;;;16.98;50.13;99888.86;79631;1294;3013281;-65
2023/09/30 05:26:21;;;;;;;22.70;8.10;;;;;;;17.06;49.96;99890.16;79411;1298;3012843;-66
2023/09/30 05:28:48;;;;;;;25.80;8.20;;;;;;;17.13;49.92;99892.02;78248;1297;3026829;-67
2023/09/30 05:31:15;;;;;;;21.20;8.30;;;;;;;17.22;49.59;99890.20;79649;1295;3013262;-67
2023/09/30 05:33:41;;;;;;;23.10;8.50;;;;;;;17.31;49.15;99890.41;79800;1294;3013378;-63
2023/09/30 05:36:09;;;;;;;23.80;8.80;;;;;;;17.39;48.63;99889.78;78172;1294;3027283;-70
2023/09/30 05:38:36;;;;;;;18.80;8.20;;;;;;;17.46;48.61;99890.75;79500;1296;3013304;-68
2023/09/30 05:41:03;;;;;;;24.40;8.60;;;;;;;17.55;48.42;99892.66;79556;1297;3011604;-64
2023/09/30 05:43:32;;;;;;;18.00;7.70;;;;;;;17.64;47.85;99889.80;78253;1298;3050288;-65
2023/09/30 05:45:58;;;;;;;24.20;8.60;;;;;;;17.71;47.86;99892.39;79661;1298;3013154;-72
2023/09/30 05:48:25;;;;;;;31.20;9.20;;;;;;;17.80;47.76;99894.89;79491;1295;3013327;-67
2023/09/30 05:50:53;;;;;;;18.30;9.00;;;;;;;17.88;47.78;99894.05;78356;1294;3050392;-66
2023/09/30 05:53:20;;;;;;;23.40;8.90;;;;;;;17.93;47.13;99894.10;79460;1296;3013112;-68
2023/09/30 05:55:47;;;;;;;20.10;8.80;;;;;;;18.00;46.94;99893.39;79476;1296;3011751;-65
2023/09/30 05:58:18;;;;;;;18.40;8.90;;;;;;;18.07;46.64;99895.94;78258;1296;3050402;-70
2023/09/30 06:00:45;;;;;;;19.20;8.70;;;;;;;18.17;46.21;99892.88;79775;1295;3011496;-70
2023/09/30 06:03:14;;;;;;;16.10;8.40;;;;;;;18.25;45.91;99898.13;79100;1297;3011927;-68
2023/09/30 06:05:40;;;;;;;24.30;8.70;;;;;;;18.34;45.73;99892.79;79603;1298;3013486;-68
2023/09/30 06:08:10;;;;;;;21.30;9.40;;;;;;;18.44;45.29;99899.16;79684;1298;3011613;-72
2023/09/30 06:10:42;;;;;;;19.10;8.30;;;;;;;18.54;44.83;99898.38;78446;1298;3050309;-65
2023/09/30 06:13:12;;;;;;;20.70;8.80;;;;;;;18.62;44.01;99891.79;79839;1298;3011706;-72
2023/09/30 06:15:40;;;;;;;16.80;9.20;;;;;;;18.70;43.78;99894.98;78409;1294;3051077;-69
2023/09/30 06:18:07;;;;;;;19.30;9.10;;;;;;;18.78;43.96;99893.22;79766;1298;3013147;-66
2023/09/30 06:20:34;;;;;;;21.00;8.70;;;;;;;18.86;43.47;99895.88;79463;1293;3011961;-64
2023/09/30 06:23:02;;;;;;;15.80;8.80;;;;;;;18.95;42.66;99895.50;78386;1298;3051700;-75
2023/09/30 06:25:30;;;;;;;18.00;8.10;;;;;;;19.03;42.83;99896.41;79718;1294;3013032;-71
2023/09/30 06:28:01;;;;;;;22.70;9.00;;;;;;;19.09;42.56;99894.02;79138;1297;3011740;-70
2023/09/30 06:30:30;;;;;;;26.20;8.80;;;;;;;19.18;42.40;99891.70;79650;1295;3012907;-72
2023/09/30 06:32:57;;;;;;;16.20;8.00;;;;;;;19.29;42.03;99891.88;79719;1295;3011824;-68
2023/09/30 06:35:26;;;;;;;27.60;9.00;;;;;;;19.40;41.75;99889.86;78261;1298;3052244;-69
2023/09/30 06:37:52;;;;;;;18.10;8.70;;;;;;;19.51;41.52;99891.59;79847;1297;3013146;-70
2023/09/30 06:40:20;;;;;;;19.60;8.20;;;;;;;19.63;41.37;99889.73;80149;1295;3011665;-67
2023/09/30 06:42:48;;;;;;;14.10;8.00;;;;;;;19.77;40.69;99892.17;78382;1295;3050099;-70
2023/09/30 06:45:15;;;;;;;20.30;8.20;;;;;;;19.89;40.53;99887.16;79586;1295;3021111;-67
2023/09/30 06:47:42;;;;;;;16.30;7.70;;;;;;;20.02;40.41;99884.79;79449;1298;3012929;-72
2023/09/30 06:50:12;;;;;;;17.40;7.70;;;;;;;20.17;40.46;99887.75;78355;1295;3052611;-71
2023/09/30 06:52:40;;;;;;;16.50;7.20;;;;;;;20.32;40.17;99884.59;79519;1294;3013693;-66
2023/09/30 06:55:09;;;;;;;16.10;7.10;;;;;;;20.47;39.87;99884.77;78523;1298;3026537;-70
2023/09/30 06:57:37;;;;;;;13.60;6.90;;;;;;;20.59;40.01;99883.30;79855;1294;3013102;-68
2023/09/30 07:00:11;;;;;;;18.50;7.20;;;;;;;20.70;38.90;99883.35;79508;1295;3013155;-74
2023/09/30 07:02:40;;;;;;;23.30;6.60;;;;;;;20.80;38.18;99881.13;78125;1298;3050625;-66
2023/09/30 07:05:11;;;;;;;14.20;6.40;;;;;;;20.87;37.35;99881.32;79643;1298;3012849;-71
2023/09/30 07:07:39;;;;;;;13.60;5.90;;;;;;;20.99;37.55;99877.64;78212;1295;3068917;-69
2023/09/30 07:10:07;;;;;;;20.60;6.10;;;;;;;21.13;37.47;99874.73;79563;1294;3013213;-70
2023/09/30 07:12:40;;;;;;;9.40;5.50;;;;;;;21.27;36.74;99877.83;78448;1298;3050786;-72
2023/09/30 07:15:07;;;;;;;14.90;5.60;;;;;;;21.39;36.02;99876.80;79665;1295;3013166;-72
2023/09/30 07:17:34;;;;;;;10.70;5.70;;;;;;;21.51;36.39;99875.05;79551;1295;3011680;-68
2023/09/30 07:20:05;;;;;;;16.70;5.20;;;;;;;21.61;35.49;99874.74;78272;1298;3053086;-64
2023/09/30 07:22:32;;;;;;;20.40;6.50;;;;;;;21.72;35.64;99873.32;79677;1296;3012925;-67
2023/09/30 07:24:59;;;;;;;21.10;6.10;;;;;;;21.84;35.73;99871.61;75723;1295;3087828;-66
2023/09/30 07:27:26;;;;;;;12.20;5.40;;;;;;;21.96;35.17;99873.90;79695;1294;3018411;-70
2023/09/30 07:29:52;;;;;;;10.30;5.30;;;;;;;22.07;34.90;99876.04;79507;1295;3012414;-74
2023/09/30 07:32:23;;;;;;;18.50;6.10;;;;;;;22.17;35.06;99873.05;78352;1295;3026945;-71
2023/09/30 07:34:50;;;;;;;14.80;5.40;;;;;;;22.28;34.83;99871.14;79603;1295;3011889;-67
2023/09/30 07:37:20;;;;;;;12.50;5.10;;;;;;;22.41;34.79;99876.82;79256;1298;3013453;-69
2023/09/30 07:39:46;;;;;;;12.30;5.00;;;;;;;22.51;33.92;99876.77;79718;1295;3012940;-68
2023/09/30 07:42:13;;;;;;;13.30;5.60;;;;;;;22.59;33.64;99876.77;79632;1298;3011655;-70
2023/09/30 07:44:41;;;;;;;15.90;4.80;;;;;;;22.67;32.75;99872.69;78426;1298;3048659;-70
2023/09/30 07:47:08;;;;;;;17.30;5.00;;;;;;;22.76;32.60;99867.50;79638;1295;3013332;-73
2023/09/30 07:49:35;;;;;;;21.10;5.70;;;;;;;22.87;32.22;99867.95;79638;1298;3011937;-67
2023/09/30 07:52:03;;;;;;;21.20;4.80;;;;;;;22.98;32.66;99866.91;78403;1298;3027486;-67
2023/09/30 07:54:30;;;;;;;13.90;4.70;;;;;;;23.07;31.89;99866.13;79737;1295;3014331;-73
2023/09/30 07:56:57;;;;;;;15.60;4.70;;;;;;;23.15;31.64;99869.45;79556;1294;3012061;-73
2023/09/30 07:59:28;;;;;;;15.30;4.80;;;;;;;23.24;31.51;99865.15;78391;1298;3049056;-68
2023/09/30 08:01:56;;;;;;;20.50;4.80;;;;;;;23.30;31.30;99862.71;79595;1295;3011692;-69
2023/09/30 08:04:25;;;;;;;9.80;4.30;;;;;;;23.35;29.95;99858.90;78420;1298;3050772;-68
2023/09/30 08:06:51;;;;;;;14.60;4.60;;;;;;;23.44;30.35;99857.89;79714;1298;3013120;-69
2023/09/30 08:09:18;;;;;;;17.30;4.70;;;;;;;23.58;30.68;99857.71;79707;1295;3011939;-69
2023/09/30 08:11:46;;;;;;;12.40;4.80;;;;;;;23.70;30.40;99859.39;78476;1298;3029219;-73
2023/09/30 08:14:15;;;;;;;25.50;4.80;;;;;;;23.81;30.34;99857.88;80108;1298;3012852;-66
2023/09/30 08:16:42;;;;;;;9.80;4.60;;;;;;;23.89;29.36;99855.80;79979;1298;3011963;-73
2023/09/30 08:19:10;;;;;;;12.40;4.20;;;;;;;23.92;28.87;99853.61;78442;1295;3050238;-74
2023/09/30 08:21:37;;;;;;;22.30;4.70;;;;;;;24.00;28.55;99852.37;79565;1298;3013736;-73
2023/09/30 08:24:04;;;;;;;10.40;4.60;;;;;;;24.03;28.96;99852.27;79566;1295;3013192;-68
2023/09/30 08:26:33;;;;;;;12.80;4.90;;;;;;;24.13;28.92;99851.64;78446;1298;3027644;-73
2023/09/30 08:28:59;;;;;;;20.60;5.50;;;;;;;24.19;29.02;99850.44;79523;1295;3013352;-70
2023/09/30 08:31:26;;;;;;;12.80;5.20;;;;;;;24.26;28.31;99851.14;79613;1294;3013161;-69
2023/09/30 08:33:54;;;;;;;15.20;4.90;;;;;;;24.33;28.47;99847.45;78387;1298;3049699;-72
2023/09/30 08:36:20;;;;;;;15.90;5.90;;;;;;;24.45;28.72;99849.35;79602;1298;3012913;-71
2023/09/30 08:38:47;;;;;;;22.50;7.40;;;;;;;24.54;29.44;99844.40;79660;1298;3011605;-69
2023/09/30 08:41:29;;;;;;;21.50;6.60;;;;;;;24.65;29.52;99842.77;78436;1295;3025533;-72
2023/09/30 08:43:57;;;;;;;15.90;6.10;;;;;;;24.76;28.84;99840.27;78410;1294;3055735;-65
2023/09/30 08:46:24;;;;;;;17.80;6.50;;;;;;;24.83;28.50;99838.06;79671;1294;3019517;-70
2023/09/30 08:48:50;;;;;;;16.60;6.30;;;;;;;24.86;28.61;99836.84;79431;1295;3013074;-72
2023/09/30 08:51:19;;;;;;;17.80;5.80;;;;;;;24.90;28.49;99838.84;78199;1301;3052011;-71
2023/09/30 08:53:46;;;;;;;15.90;6.50;;;;;;;24.97;28.36;99839.83;79649;1294;3018436;-66
2023/09/30 08:56:12;;;;;;;18.70;5.90;;;;;;;25.05;27.88;99837.04;79643;1295;3011525;-68
2023/09/30 08:58:40;;;;;;;16.40;6.10;;;;;;;24.99;27.49;99837.00;78184;1300;3028533;-66
2023/09/30 09:01:09;;;;;;;19.00;5.60;;;;;;;25.03;27.49;99839.13;79710;1294;3013766;-69
2023/09/30 09:03:36;;;;;;;20.90;5.90;;;;;;;25.07;27.35;99836.78;79659;1295;3011616;-68
2023/09/30 09:06:04;;;;;;;28.40;5.30;;;;;;;25.06;27.25;99832.96;78482;1298;3053525;-74
2023/09/30 09:08:32;;;;;;;16.30;5.40;;;;;;;25.07;26.92;99830.65;79635;1295;3013749;-68
2023/09/30 09:11:00;;;;;;;17.50;6.00;;;;;;;25.20;27.31;99827.05;79586;1295;3012154;-65
2023/09/30 09:13:28;;;;;;;14.10;5.80;;;;;;;25.35;27.31;99827.66;78339;1295;3056719;-68
2023/09/30 09:16:10;;;;;;;15.00;4.90;;;;;;;25.39;27.19;99825.67;79673;1295;3013568;-74
2023/09/30 09:18:40;;;;;;;18.30;5.00;;;;;;;25.37;26.51;99819.30;78501;1295;3049190;-72
2023/09/30 09:21:22;;;;;;;13.30;5.30;;;;;;;25.40;26.69;99819.35;79580;1298;3014027;-75
2023/09/30 09:23:51;;;;;;;10.90;4.50;;;;;;;25.49;26.88;99817.23;78270;1295;3068773;-74
2023/09/30 09:26:25;;;;;;;13.30;5.20;;;;;;;25.58;26.74;99818.07;79415;1295;3011641;-64
2023/09/30 09:29:00;;;;;;;12.50;5.10;;;;;;;25.68;26.86;99818.19;78430;1298;3049738;-67
2023/09/30 09:31:31;;;;;;;13.20;4.60;;;;;;;25.78;27.15;99812.00;79082;1298;3011607;-64
2023/09/30 09:33:57;;;;;;;20.10;5.00;;;;;;;25.92;27.31;99809.61;79713;1295;3013718;-69
2023/09/30 09:36:40;;;;;;;11.40;4.40;;;;;;;26.08;27.21;99810.38;79645;1295;3011789;-70
2023/09/30 09:39:08;;;;;;;10.60;4.80;;;;;;;26.25;26.63;99808.30;78523;1296;3052267;-70
2023/09/30 09:41:52;;;;;;;8.40;4.20;;;;;;;26.28;25.52;99806.56;79890;1295;3012738;-72
2023/09/30 09:44:21;;;;;;;13.30;4.30;;;;;;;26.27;25.93;99800.00;78327;1295;3055919;-66
2023/09/30 09:46:50;;;;;;;15.70;4.50;;;;;;;26.35;26.26;99796.67;79823;1298;3012938;-67
2023/09/30 09:49:19;;;;;;;15.90;5.70;;;;;;;26.40;26.10;99795.90;79679;1295;3011789;-71
2023/09/30 09:51:47;;;;;;;13.90;4.80;;;;;;;26.39;26.08;99794.73;79916;1298;3014771;-71
2023/09/30 09:54:14;;;;;;;14.50;4.60;;;;;;;26.47;25.66;99792.73;79826;1298;3011630;-69
2023/09/30 09:56:44;;;;;;;16.20;5.20;;;;;;;26.43;25.44;99788.73;78386;1298;3070273;-68
2023/09/30 09:59:11;;;;;;;9.40;4.90;;;;;;;26.47;25.58;99781.27;79540;1295;3012636;-69
2023/09/30 10:01:42;;;;;;;9.90;5.00;;;;;;;26.57;25.87;99778.73;79231;1295;3011841;-71
2023/09/30 10:04:10;;;;;;;19.80;5.70;;;;;;;26.67;25.81;99781.70;79677;1294;3011893;-73
2023/09/30 10:06:41;;;;;;;15.30;4.90;;;;;;;26.73;25.65;99774.83;78437;1294;3027522;-70
2023/09/30 10:09:09;;;;;;;10.30;5.00;;;;;;;26.82;25.77;99772.15;79454;1294;3013703;-72
2023/09/30 10:11:40;;;;;;;15.70;5.70;;;;;;;26.94;25.45;99773.25;79036;1295;3012188;-69
2023/09/30 10:14:12;;;;;;;12.60;4.90;;;;;;;26.86;25.02;99769.83;79472;1301;3012178;-72
2023/09/30 10:16:43;;;;;;;;;;;;;;;26.90;25.09;99770.73;78490;1295;3069637;-71
2023/09/30 10:19:11;;;;;;;13.20;5.40;;;;;;;26.89;25.23;99767.98;79603;1295;3011498;-68
2023/09/30 10:21:39;;;;;;;14.50;4.70;;;;;;;27.00;25.50;99762.83;78381;1295;3026496;-72
2023/09/30 10:24:25;;;;;;;10.70;5.10;;;;;;;27.15;25.60;99758.97;79566;1295;3013409;-68
2023/09/30 10:27:22;;;;;;;13.30;5.10;;;;;;;27.22;25.34;99757.79;78372;1299;3049827;-66
2023/09/30 10:29:56;;;;;;;13.30;5.40;;;;;;;27.27;25.29;99757.25;78424;1298;3054165;-73
2023/09/30 10:32:23;;;;;;;13.10;4.80;;;;;;;27.10;24.22;99749.98;79623;1295;3013619;-69
2023/09/30 10:34:52;;;;;;;12.60;5.00;;;;;;;27.15;24.03;99747.52;78352;1296;3068670;-66
2023/09/30 10:37:25;;;;;;;13.00;4.90;;;;;;;27.19;24.10;99742.87;79493;1295;3012034;-65
2023/09/30 10:39:54;;;;;;;16.00;5.60;;;;;;;27.28;24.66;99741.86;78421;1295;3056198;-70
2023/09/30 10:42:49;;;;;;;16.90;5.10;;;;;;;27.35;25.12;99737.18;79692;1295;3013597;-68
2023/09/30 10:45:37;;;;;;;15.90;5.00;;;;;;;27.47;24.90;99735.55;78211;1298;3050336;-74
2023/09/30 10:48:24;;;;;;;14.70;4.90;;;;;;;27.69;24.22;99736.98;78328;1295;3053530;-69
2023/09/30 10:50:55;;;;;;;11.70;5.30;;;;;;;27.69;23.97;99732.58;78364;1298;3053002;-74
2023/09/30 10:53:21;;;;;;;16.00;5.00;;;;;;;27.82;24.18;99734.10;79743;1295;3011467;-70
2023/09/30 10:55:57;;;;;;;13.10;5.30;;;;;;;27.97;23.77;99733.48;79122;1295;3011846;-73
2023/09/30 10:59:01;;;;;;;18.60;5.20;;;;;;;28.00;23.55;99730.63;79097;1294;3011836;-70
2023/09/30 11:01:33;;;;;;;13.60;5.30;;;;;;;27.84;23.27;99727.34;78286;1298;3057777;-64
2023/09/30 11:04:04;;;;;;;9.70;5.30;;;;;;;27.77;23.33;99724.37;79697;1294;3013881;-69
2023/09/30 11:06:32;;;;;;;12.90;4.80;;;;;;;27.82;23.60;99719.70;78386;1295;3054112;-70
2023/09/30 11:09:00;;;;;;;12.30;5.40;;;;;;;27.89;23.54;99718.11;79481;1298;3013661;-67
2023/09/30 11:11:43;;;;;;;17.20;5.70;;;;;;;27.95;23.51;99719.02;79570;1296;3013658;-76
2023/09/30 11:14:24;;;;;;;;;;;;;;;27.84;23.21;99716.77;78436;1298;3069272;-70
2023/09/30 11:16:53;;;;;;;14.20;4.80;;;;;;;27.85;23.57;99714.52;78433;1295;3052125;-72